sensor_id;sensor_type;location;lat;lon;timestamp;pressure;altitude;pressure_sealevel;temperature;humidity
32081;BME280;18593;51.426;7.030;2023-02-18T00:02:19;101166.72;;;12.00;75.37
32081;BME280;18593;51.426;7.030;2023-02-18T00:04:46;101163.88;;;12.02;75.37
32081;BME280;18593;51.426;7.030;2023-02-18T00:07:13;101169.19;;;11.95;75.66
32081;BME280;18593;51.426;7.030;2023-02-18T00:09:40;101170.03;;;11.96;75.97
32081;BME280;18593;51.426;7.030;2023-02-18T00:12:07;101174.16;;;11.98;75.83
32081;BME280;18593;51.426;7.030;2023-02-18T00:14:34;101165.69;;;11.95;76.17
32081;BME280;18593;51.426;7.030;2023-02-18T00:17:02;101174.34;;;11.97;76.04
32081;BME280;18593;51.426;7.030;2023-02-18T00:19:29;101173.50;;;11.90;76.31
32081;BME280;18593;51.426;7.030;2023-02-18T00:21:56;101167.13;;;11.91;76.66
32081;BME280;18593;51.426;7.030;2023-02-18T00:24:23;101162.81;;;11.90;76.39
32081;BME280;18593;51.426;7.030;2023-02-18T00:26:50;101153.75;;;11.91;76.72
32081;BME280;18593;51.426;7.030;2023-02-18T00:29:18;101161.16;;;11.95;76.54
32081;BME280;18593;51.426;7.030;2023-02-18T00:31:45;101148.66;;;11.96;76.24
32081;BME280;18593;51.426;7.030;2023-02-18T00:34:13;101139.59;;;11.97;76.33
32081;BME280;18593;51.426;7.030;2023-02-18T00:36:40;101134.88;;;11.99;75.86
32081;BME280;18593;51.426;7.030;2023-02-18T00:39:08;101132.81;;;12.01;76.23
32081;BME280;18593;51.426;7.030;2023-02-18T00:41:36;101133.84;;;12.00;76.08
32081;BME280;18593;51.426;7.030;2023-02-18T00:44:03;101136.28;;;11.95;76.29
32081;BME280;18593;51.426;7.030;2023-02-18T00:46:30;101131.97;;;11.94;76.31
32081;BME280;18593;51.426;7.030;2023-02-18T00:49:00;101135.06;;;11.97;76.49
32081;BME280;18593;51.426;7.030;2023-02-18T00:51:28;101138.19;;;12.01;76.51
32081;BME280;18593;51.426;7.030;2023-02-18T00:53:57;101137.13;;;12.02;76.53
32081;BME280;18593;51.426;7.030;2023-02-18T00:56:24;101125.81;;;12.00;76.43
32081;BME280;18593;51.426;7.030;2023-02-18T00:58:51;101119.03;;;11.97;76.91
32081;BME280;18593;51.426;7.030;2023-02-18T01:01:19;101119.84;;;11.98;77.03
32081;BME280;18593;51.426;7.030;2023-02-18T01:03:46;101115.53;;;11.97;77.28
32081;BME280;18593;51.426;7.030;2023-02-18T01:06:13;101105.25;;;12.00;76.95
32081;BME280;18593;51.426;7.030;2023-02-18T01:08:41;101102.56;;;12.00;77.08
32081;BME280;18593;51.426;7.030;2023-02-18T01:11:11;101100.94;;;11.99;77.18
32081;BME280;18593;51.426;7.030;2023-02-18T01:13:39;101102.78;;;11.99;77.30
32081;BME280;18593;51.426;7.030;2023-02-18T01:16:06;101106.72;;;11.96;77.39
32081;BME280;18593;51.426;7.030;2023-02-18T01:18:34;101102.78;;;11.99;77.46
32081;BME280;18593;51.426;7.030;2023-02-18T01:21:04;101096.84;;;11.97;77.51
32081;BME280;18593;51.426;7.030;2023-02-18T01:23:34;101105.66;;;11.91;77.54
32081;BME280;18593;51.426;7.030;2023-02-18T01:26:03;101106.50;;;11.91;77.87
32081;BME280;18593;51.426;7.030;2023-02-18T01:28:32;101106.06;;;11.88;77.91
32081;BME280;18593;51.426;7.030;2023-02-18T01:31:04;101104.22;;;11.88;77.84
32081;BME280;18593;51.426;7.030;2023-02-18T01:33:32;101098.88;;;11.88;77.62
32081;BME280;18593;51.426;7.030;2023-02-18T01:36:00;101096.81;;;11.90;77.56
32081;BME280;18593;51.426;7.030;2023-02-18T01:38:27;101090.25;;;11.93;77.41
32081;BME280;18593;51.426;7.030;2023-02-18T01:40:54;101093.53;;;11.95;77.19
32081;BME280;18593;51.426;7.030;2023-02-18T01:43:22;101085.09;;;11.84;77.86
32081;BME280;18593;51.426;7.030;2023-02-18T01:46:12;101082.63;;;11.83;78.05
32081;BME280;18593;51.426;7.030;2023-02-18T01:48:41;101080.16;;;11.88;77.54
32081;BME280;18593;51.426;7.030;2023-02-18T01:51:11;101075.03;;;11.87;77.68
32081;BME280;18593;51.426;7.030;2023-02-18T01:53:44;101077.06;;;11.84;77.54
32081;BME280;18593;51.426;7.030;2023-02-18T01:56:15;101071.72;;;11.84;77.78
32081;BME280;18593;51.426;7.030;2023-02-18T01:58:47;101070.66;;;11.79;77.92
32081;BME280;18593;51.426;7.030;2023-02-18T02:01:14;101074.97;;;11.67;78.27
32081;BME280;18593;51.426;7.030;2023-02-18T02:03:42;101070.47;;;11.67;78.61
32081;BME280;18593;51.426;7.030;2023-02-18T02:06:15;101071.06;;;11.69;78.31
32081;BME280;18593;51.426;7.030;2023-02-18T02:08:43;101064.06;;;11.75;78.04
32081;BME280;18593;51.426;7.030;2023-02-18T02:11:20;101063.69;;;11.78;77.82
32081;BME280;18593;51.426;7.030;2023-02-18T02:14:07;101062.66;;;11.79;77.72
32081;BME280;18593;51.426;7.030;2023-02-18T02:16:39;101057.94;;;11.81;77.30
32081;BME280;18593;51.426;7.030;2023-02-18T02:19:28;101059.75;;;11.80;77.26
32081;BME280;18593;51.426;7.030;2023-02-18T02:22:40;101047.66;;;11.84;77.24
32081;BME280;18593;51.426;7.030;2023-02-18T02:25:16;101045.81;;;11.85;76.85
32081;BME280;18593;51.426;7.030;2023-02-18T02:28:26;101054.41;;;11.80;77.12
32081;BME280;18593;51.426;7.030;2023-02-18T02:31:21;101044.13;;;11.71;77.39
32081;BME280;18593;51.426;7.030;2023-02-18T02:34:24;101039.00;;;11.76;77.14
32081;BME280;18593;51.426;7.030;2023-02-18T02:36:54;101024.81;;;11.75;77.11
32081;BME280;18593;51.426;7.030;2023-02-18T02:39:26;101041.06;;;11.74;77.30
32081;BME280;18593;51.426;7.030;2023-02-18T02:42:00;101034.28;;;11.71;77.33
32081;BME280;18593;51.426;7.030;2023-02-18T02:44:31;101036.34;;;11.69;77.33
32081;BME280;18593;51.426;7.030;2023-02-18T02:47:04;101026.28;;;11.71;77.39
32081;BME280;18593;51.426;7.030;2023-02-18T02:49:37;101031.19;;;11.68;77.40
32081;BME280;18593;51.426;7.030;2023-02-18T02:52:12;101028.72;;;11.66;77.72
32081;BME280;18593;51.426;7.030;2023-02-18T02:54:43;101034.69;;;11.68;77.63
32081;BME280;18593;51.426;7.030;2023-02-18T02:57:41;101020.94;;;11.71;77.57
32081;BME280;18593;51.426;7.030;2023-02-18T03:00:14;101026.06;;;11.73;77.77
32081;BME280;18593;51.426;7.030;2023-02-18T03:02:53;101024.44;;;11.72;77.66
32081;BME280;18593;51.426;7.030;2023-02-18T03:05:29;101016.19;;;11.73;77.53
32081;BME280;18593;51.426;7.030;2023-02-18T03:08:14;101017.00;;;11.74;77.70
32081;BME280;18593;51.426;7.030;2023-02-18T03:10:50;101017.00;;;11.74;78.22
32081;BME280;18593;51.426;7.030;2023-02-18T03:13:29;100999.34;;;11.73;78.86
32081;BME280;18593;51.426;7.030;2023-02-18T03:15:59;100990.72;;;11.77;78.62
32081;BME280;18593;51.426;7.030;2023-02-18T03:18:34;100969.94;;;11.79;78.80
32081;BME280;18593;51.426;7.030;2023-02-18T03:21:07;100982.88;;;11.76;79.02
32081;BME280;18593;51.426;7.030;2023-02-18T03:23:38;100971.38;;;11.75;79.16
32081;BME280;18593;51.426;7.030;2023-02-18T03:26:06;100979.59;;;11.74;79.24
32081;BME280;18593;51.426;7.030;2023-02-18T03:28:34;100972.81;;;11.78;79.22
32081;BME280;18593;51.426;7.030;2023-02-18T03:31:04;100962.13;;;11.78;79.38
32081;BME280;18593;51.426;7.030;2023-02-18T03:33:36;100967.69;;;11.76;79.80
32081;BME280;18593;51.426;7.030;2023-02-18T03:36:06;100961.94;;;11.73;79.80
32081;BME280;18593;51.426;7.030;2023-02-18T03:38:37;100962.34;;;11.76;79.72
32081;BME280;18593;51.426;7.030;2023-02-18T03:41:06;100954.53;;;11.75;80.06
32081;BME280;18593;51.426;7.030;2023-02-18T03:43:34;100955.16;;;11.77;79.71
32081;BME280;18593;51.426;7.030;2023-02-18T03:46:01;100949.19;;;11.75;80.06
32081;BME280;18593;51.426;7.030;2023-02-18T03:48:29;100950.00;;;11.75;80.18
32081;BME280;18593;51.426;7.030;2023-02-18T03:50:56;100953.31;;;11.77;79.99
32081;BME280;18593;51.426;7.030;2023-02-18T03:53:24;100939.09;;;11.70;80.27
32081;BME280;18593;51.426;7.030;2023-02-18T03:55:51;100943.44;;;11.71;80.35
32081;BME280;18593;51.426;7.030;2023-02-18T03:58:18;100954.53;;;11.68;80.94
32081;BME280;18593;51.426;7.030;2023-02-18T04:00:45;100943.84;;;11.68;80.86
32081;BME280;18593;51.426;7.030;2023-02-18T04:03:12;100934.78;;;11.69;80.46
32081;BME280;18593;51.426;7.030;2023-02-18T04:05:39;100934.81;;;11.63;81.00
32081;BME280;18593;51.426;7.030;2023-02-18T04:08:06;100917.75;;;11.64;81.12
32081;BME280;18593;51.426;7.030;2023-02-18T04:10:34;100933.97;;;11.69;81.01
32081;BME280;18593;51.426;7.030;2023-02-18T04:13:01;100926.38;;;11.72;80.75
32081;BME280;18593;51.426;7.030;2023-02-18T04:15:28;100928.00;;;11.73;80.55
32081;BME280;18593;51.426;7.030;2023-02-18T04:17:55;100916.28;;;11.74;80.58
32081;BME280;18593;51.426;7.030;2023-02-18T04:20:22;100914.84;;;11.78;80.24
32081;BME280;18593;51.426;7.030;2023-02-18T04:22:49;100919.19;;;11.73;80.53
32081;BME280;18593;51.426;7.030;2023-02-18T04:25:16;100920.41;;;11.70;80.71
32081;BME280;18593;51.426;7.030;2023-02-18T04:27:45;100912.19;;;11.72;80.91
32081;BME280;18593;51.426;7.030;2023-02-18T04:30:12;100906.03;;;11.71;80.65
32081;BME280;18593;51.426;7.030;2023-02-18T04:32:39;100905.81;;;11.73;80.67
32081;BME280;18593;51.426;7.030;2023-02-18T04:35:07;100895.13;;;11.73;80.70
32081;BME280;18593;51.426;7.030;2023-02-18T04:37:34;100900.47;;;11.66;80.99
32081;BME280;18593;51.426;7.030;2023-02-18T04:40:00;100891.63;;;11.66;80.90
32081;BME280;18593;51.426;7.030;2023-02-18T04:42:27;100886.69;;;11.69;81.11
32081;BME280;18593;51.426;7.030;2023-02-18T04:44:56;100887.13;;;11.73;80.81
32081;BME280;18593;51.426;7.030;2023-02-18T04:47:23;100874.97;;;11.70;80.91
32081;BME280;18593;51.426;7.030;2023-02-18T04:49:49;100878.47;;;11.71;80.90
32081;BME280;18593;51.426;7.030;2023-02-18T04:52:16;100883.84;;;11.64;81.32
32081;BME280;18593;51.426;7.030;2023-02-18T04:54:44;100879.75;;;11.62;81.72
32081;BME280;18593;51.426;7.030;2023-02-18T04:57:11;100878.72;;;11.63;81.35
32081;BME280;18593;51.426;7.030;2023-02-18T04:59:38;100875.22;;;11.62;81.55
32081;BME280;18593;51.426;7.030;2023-02-18T05:02:07;100874.00;;;11.58;82.00
32081;BME280;18593;51.426;7.030;2023-02-18T05:04:34;100862.03;;;11.60;82.04
32081;BME280;18593;51.426;7.030;2023-02-18T05:07:01;100855.88;;;11.60;82.03
32081;BME280;18593;51.426;7.030;2023-02-18T05:09:27;100861.84;;;11.55;82.13
32081;BME280;18593;51.426;7.030;2023-02-18T05:11:54;100852.63;;;11.58;82.35
32081;BME280;18593;51.426;7.030;2023-02-18T05:14:21;100856.31;;;11.57;81.87
32081;BME280;18593;51.426;7.030;2023-02-18T05:16:48;100858.16;;;11.56;81.96
32081;BME280;18593;51.426;7.030;2023-02-18T05:19:17;100857.13;;;11.57;81.99
32081;BME280;18593;51.426;7.030;2023-02-18T05:21:43;100847.25;;;11.51;82.35
32081;BME280;18593;51.426;7.030;2023-02-18T05:24:11;100849.75;;;11.53;82.54
32081;BME280;18593;51.426;7.030;2023-02-18T05:26:37;100834.56;;;11.47;82.46
32081;BME280;18593;51.426;7.030;2023-02-18T05:29:04;100826.13;;;11.43;82.67
32081;BME280;18593;51.426;7.030;2023-02-18T05:31:31;100833.34;;;11.43;82.77
32081;BME280;18593;51.426;7.030;2023-02-18T05:33:58;100823.47;;;11.43;82.63
32081;BME280;18593;51.426;7.030;2023-02-18T05:36:26;100828.38;;;11.40;82.86
32081;BME280;18593;51.426;7.030;2023-02-18T05:38:53;100815.63;;;11.42;83.09
32081;BME280;18593;51.426;7.030;2023-02-18T05:41:20;100814.63;;;11.43;83.01
32081;BME280;18593;51.426;7.030;2023-02-18T05:43:47;100812.38;;;11.40;82.79
32081;BME280;18593;51.426;7.030;2023-02-18T05:46:32;100809.91;;;11.45;82.73
32081;BME280;18593;51.426;7.030;2023-02-18T05:48:59;100803.53;;;11.46;82.49
32081;BME280;18593;51.426;7.030;2023-02-18T05:51:27;100800.25;;;11.44;82.39
32081;BME280;18593;51.426;7.030;2023-02-18T05:53:54;100800.25;;;11.44;82.45
32081;BME280;18593;51.426;7.030;2023-02-18T05:56:21;100797.56;;;11.44;82.51
32081;BME280;18593;51.426;7.030;2023-02-18T05:58:48;100790.59;;;11.43;82.40
32081;BME280;18593;51.426;7.030;2023-02-18T06:01:15;100794.28;;;11.42;82.51
32081;BME280;18593;51.426;7.030;2023-02-18T06:03:42;100788.75;;;11.37;82.59
32081;BME280;18593;51.426;7.030;2023-02-18T06:06:09;100785.06;;;11.38;82.65
32081;BME280;18593;51.426;7.030;2023-02-18T06:08:37;100796.56;;;11.38;82.80
32081;BME280;18593;51.426;7.030;2023-02-18T06:11:04;100784.44;;;11.35;82.94
32081;BME280;18593;51.426;7.030;2023-02-18T06:13:31;100791.44;;;11.30;83.04
32081;BME280;18593;51.426;7.030;2023-02-18T06:15:58;100793.91;;;11.25;83.36
32081;BME280;18593;51.426;7.030;2023-02-18T06:18:25;100791.63;;;11.22;83.73
32081;BME280;18593;51.426;7.030;2023-02-18T06:20:52;100796.59;;;11.18;83.75
32081;BME280;18593;51.426;7.030;2023-02-18T06:23:19;100790.19;;;11.26;83.80
32081;BME280;18593;51.426;7.030;2023-02-18T06:25:48;100783.00;;;11.26;83.68
32081;BME280;18593;51.426;7.030;2023-02-18T06:28:15;100783.63;;;11.28;83.53
32081;BME280;18593;51.426;7.030;2023-02-18T06:30:43;100776.84;;;11.32;83.12
32081;BME280;18593;51.426;7.030;2023-02-18T06:33:10;100776.66;;;11.34;83.10
32081;BME280;18593;51.426;7.030;2023-02-18T06:35:37;100776.25;;;11.24;83.22
32081;BME280;18593;51.426;7.030;2023-02-18T06:38:04;100780.34;;;11.20;83.78
32081;BME280;18593;51.426;7.030;2023-02-18T06:40:31;100775.84;;;11.20;83.70
32081;BME280;18593;51.426;7.030;2023-02-18T06:42:59;100790.81;;;11.21;83.73
32081;BME280;18593;51.426;7.030;2023-02-18T06:45:26;100785.69;;;11.20;83.77
32081;BME280;18593;51.426;7.030;2023-02-18T06:47:53;100787.13;;;11.22;83.86
32081;BME280;18593;51.426;7.030;2023-02-18T06:50:20;100786.72;;;11.25;83.50
32081;BME280;18593;51.426;7.030;2023-02-18T06:52:47;100789.59;;;11.24;83.50
32081;BME280;18593;51.426;7.030;2023-02-18T06:55:14;100800.91;;;11.19;83.30
32081;BME280;18593;51.426;7.030;2023-02-18T06:57:40;100795.97;;;11.16;83.33
32081;BME280;18593;51.426;7.030;2023-02-18T07:00:10;100794.31;;;11.15;83.61
32081;BME280;18593;51.426;7.030;2023-02-18T07:02:37;100793.28;;;11.16;83.24
32081;BME280;18593;51.426;7.030;2023-02-18T07:05:04;100790.63;;;11.16;83.43
32081;BME280;18593;51.426;7.030;2023-02-18T07:07:31;100770.91;;;11.17;83.54
32081;BME280;18593;51.426;7.030;2023-02-18T07:09:58;100780.97;;;11.15;83.59
32081;BME280;18593;51.426;7.030;2023-02-18T07:12:25;100778.31;;;11.15;83.50
32081;BME280;18593;51.426;7.030;2023-02-18T07:14:52;100774.00;;;11.14;83.35
32081;BME280;18593;51.426;7.030;2023-02-18T07:17:20;100770.09;;;11.10;83.66
32081;BME280;18593;51.426;7.030;2023-02-18T07:19:47;100776.03;;;11.12;83.68
32081;BME280;18593;51.426;7.030;2023-02-18T07:22:14;100764.38;;;11.13;83.57
32081;BME280;18593;51.426;7.030;2023-02-18T07:24:41;100773.81;;;11.09;83.62
32081;BME280;18593;51.426;7.030;2023-02-18T07:27:08;100778.72;;;11.12;83.23
32081;BME280;18593;51.426;7.030;2023-02-18T07:29:35;100783.47;;;11.03;83.23
32081;BME280;18593;51.426;7.030;2023-02-18T07:32:02;100791.06;;;11.00;83.57
32081;BME280;18593;51.426;7.030;2023-02-18T07:34:31;100785.72;;;11.00;83.53
32081;BME280;18593;51.426;7.030;2023-02-18T07:36:58;100794.56;;;10.94;84.03
32081;BME280;18593;51.426;7.030;2023-02-18T07:39:24;100800.91;;;10.99;83.18
32081;BME280;18593;51.426;7.030;2023-02-18T07:41:51;100800.91;;;10.93;83.21
32081;BME280;18593;51.426;7.030;2023-02-18T07:44:22;100801.09;;;10.98;83.43
32081;BME280;18593;51.426;7.030;2023-02-18T07:46:52;100803.38;;;11.01;82.78
32081;BME280;18593;51.426;7.030;2023-02-18T07:49:19;100810.56;;;11.00;82.81
32081;BME280;18593;51.426;7.030;2023-02-18T07:51:47;100802.97;;;11.04;82.49
32081;BME280;18593;51.426;7.030;2023-02-18T07:54:14;100800.09;;;10.99;82.50
32081;BME280;18593;51.426;7.030;2023-02-18T07:56:41;100802.13;;;10.97;82.19
32081;BME280;18593;51.426;7.030;2023-02-18T07:59:08;100808.72;;;11.01;82.61
32081;BME280;18593;51.426;7.030;2023-02-18T08:01:35;100802.97;;;11.04;82.24
32081;BME280;18593;51.426;7.030;2023-02-18T08:04:03;100807.47;;;10.97;82.80
32081;BME280;18593;51.426;7.030;2023-02-18T08:06:32;100823.91;;;10.94;82.97
32081;BME280;18593;51.426;7.030;2023-02-18T08:09:01;100827.59;;;10.86;83.58
32081;BME280;18593;51.426;7.030;2023-02-18T08:11:28;100831.28;;;10.92;83.45
32081;BME280;18593;51.426;7.030;2023-02-18T08:13:54;100833.56;;;10.95;83.44
32081;BME280;18593;51.426;7.030;2023-02-18T08:16:22;100825.94;;;10.92;83.33
32081;BME280;18593;51.426;7.030;2023-02-18T08:18:49;100823.09;;;10.93;83.71
32081;BME280;18593;51.426;7.030;2023-02-18T08:21:18;100818.16;;;10.97;83.19
32081;BME280;18593;51.426;7.030;2023-02-18T08:23:45;100830.03;;;10.88;82.99
32081;BME280;18593;51.426;7.030;2023-02-18T08:26:14;100820.63;;;10.78;83.48
32081;BME280;18593;51.426;7.030;2023-02-18T08:28:41;100830.44;;;10.71;84.05
32081;BME280;18593;51.426;7.030;2023-02-18T08:31:17;100826.75;;;10.72;84.21
32081;BME280;18593;51.426;7.030;2023-02-18T08:33:44;100826.34;;;10.75;84.42
32081;BME280;18593;51.426;7.030;2023-02-18T08:36:11;100822.47;;;10.85;84.71
32081;BME280;18593;51.426;7.030;2023-02-18T08:38:38;100824.91;;;10.93;84.25
32081;BME280;18593;51.426;7.030;2023-02-18T08:41:06;100823.09;;;10.93;84.36
32081;BME280;18593;51.426;7.030;2023-02-18T08:43:34;100820.59;;;10.92;83.74
32081;BME280;18593;51.426;7.030;2023-02-18T08:46:02;100834.97;;;10.91;83.43
32081;BME280;18593;51.426;7.030;2023-02-18T08:48:29;100828.81;;;10.90;83.06
32081;BME280;18593;51.426;7.030;2023-02-18T08:50:56;100828.19;;;10.88;82.29
32081;BME280;18593;51.426;7.030;2023-02-18T08:53:23;100824.09;;;10.86;81.60
32081;BME280;18593;51.426;7.030;2023-02-18T08:55:50;100818.97;;;10.84;81.70
32081;BME280;18593;51.426;7.030;2023-02-18T08:58:17;100835.38;;;10.81;81.59
32081;BME280;18593;51.426;7.030;2023-02-18T09:00:45;100821.41;;;10.72;81.62
32081;BME280;18593;51.426;7.030;2023-02-18T09:03:13;100829.00;;;10.75;81.37
32081;BME280;18593;51.426;7.030;2023-02-18T09:05:41;100811.97;;;10.76;80.33
32081;BME280;18593;51.426;7.030;2023-02-18T09:08:08;100821.84;;;10.69;80.30
32081;BME280;18593;51.426;7.030;2023-02-18T09:10:35;100831.47;;;10.70;80.50
32081;BME280;18593;51.426;7.030;2023-02-18T09:13:04;100826.34;;;10.75;80.26
32081;BME280;18593;51.426;7.030;2023-02-18T09:15:31;100818.75;;;10.72;78.75
32081;BME280;18593;51.426;7.030;2023-02-18T09:17:59;100816.72;;;10.74;79.19
32081;BME280;18593;51.426;7.030;2023-02-18T09:20:26;100813.41;;;10.72;79.01
32081;BME280;18593;51.426;7.030;2023-02-18T09:22:53;100818.53;;;10.67;79.01
32081;BME280;18593;51.426;7.030;2023-02-18T09:25:20;100825.94;;;10.65;78.86
32081;BME280;18593;51.426;7.030;2023-02-18T09:27:47;100815.88;;;10.61;79.03
32081;BME280;18593;51.426;7.030;2023-02-18T09:30:14;100818.97;;;10.64;79.12
32081;BME280;18593;51.426;7.030;2023-02-18T09:32:41;100816.50;;;10.69;78.83
32081;BME280;18593;51.426;7.030;2023-02-18T09:35:09;100818.94;;;10.71;78.09
32081;BME280;18593;51.426;7.030;2023-02-18T09:37:36;100822.22;;;10.73;78.45
32081;BME280;18593;51.426;7.030;2023-02-18T09:40:05;100814.66;;;10.76;78.51
32081;BME280;18593;51.426;7.030;2023-02-18T09:42:33;100816.72;;;10.74;78.22
32081;BME280;18593;51.426;7.030;2023-02-18T09:45:01;100809.72;;;10.73;77.65
32081;BME280;18593;51.426;7.030;2023-02-18T09:47:32;100811.56;;;10.66;77.75
32081;BME280;18593;51.426;7.030;2023-02-18T09:50:05;100807.03;;;10.67;78.31
32081;BME280;18593;51.426;7.030;2023-02-18T09:52:35;100813.41;;;10.72;77.85
32081;BME280;18593;51.426;7.030;2023-02-18T09:55:16;100809.50;;;10.68;78.16
32081;BME280;18593;51.426;7.030;2023-02-18T09:57:45;100809.09;;;10.65;77.73
32081;BME280;18593;51.426;7.030;2023-02-18T10:00:14;100815.66;;;10.62;77.62
32081;BME280;18593;51.426;7.030;2023-02-18T10:02:51;100816.47;;;10.63;77.85
32081;BME280;18593;51.426;7.030;2023-02-18T10:05:19;100807.88;;;10.67;77.79
32081;BME280;18593;51.426;7.030;2023-02-18T10:07:48;100817.31;;;10.70;77.78
32081;BME280;18593;51.426;7.030;2023-02-18T10:10:20;100815.25;;;10.65;78.28
32081;BME280;18593;51.426;7.030;2023-02-18T10:12:48;100782.81;;;10.68;78.34
32081;BME280;18593;51.426;7.030;2023-02-18T10:15:18;100807.25;;;10.72;77.96
32081;BME280;18593;51.426;7.030;2023-02-18T10:17:47;100801.31;;;10.76;77.63
32081;BME280;18593;51.426;7.030;2023-02-18T10:20:14;100807.25;;;10.72;77.63
32081;BME280;18593;51.426;7.030;2023-02-18T10:22:42;100805.84;;;10.69;77.88
32081;BME280;18593;51.426;7.030;2023-02-18T10:25:16;100809.28;;;10.63;77.69
32081;BME280;18593;51.426;7.030;2023-02-18T10:27:44;100814.63;;;10.63;78.55
32081;BME280;18593;51.426;7.030;2023-02-18T10:30:20;100818.09;;;10.64;79.21
32081;BME280;18593;51.426;7.030;2023-02-18T10:32:48;100813.63;;;10.64;78.96
32081;BME280;18593;51.426;7.030;2023-02-18T10:35:20;100823.66;;;10.62;78.91
32081;BME280;18593;51.426;7.030;2023-02-18T10:37:55;100823.25;;;10.65;79.03
32081;BME280;18593;51.426;7.030;2023-02-18T10:40:32;100823.47;;;10.70;78.87
32081;BME280;18593;51.426;7.030;2023-02-18T10:43:05;100830.41;;;10.58;78.88
32081;BME280;18593;51.426;7.030;2023-02-18T10:45:40;100835.34;;;10.61;79.56
32081;BME280;18593;51.426;7.030;2023-02-18T10:48:21;100847.44;;;10.57;80.08
32081;BME280;18593;51.426;7.030;2023-02-18T10:50:53;100839.22;;;10.58;80.56
32081;BME280;18593;51.426;7.030;2023-02-18T10:53:24;100837.00;;;10.62;80.25
32081;BME280;18593;51.426;7.030;2023-02-18T10:55:58;100840.69;;;10.61;80.25
32081;BME280;18593;51.426;7.030;2023-02-18T10:58:30;100848.25;;;10.57;80.48
32081;BME280;18593;51.426;7.030;2023-02-18T11:00:58;100850.75;;;10.59;80.45
32081;BME280;18593;51.426;7.030;2023-02-18T11:03:39;100855.44;;;10.64;80.34
32081;BME280;18593;51.426;7.030;2023-02-18T11:06:14;100855.69;;;10.69;80.30
32081;BME280;18593;51.426;7.030;2023-02-18T11:08:43;100854.88;;;10.75;80.16
32081;BME280;18593;51.426;7.030;2023-02-18T11:11:15;100853.84;;;10.69;80.14
32081;BME280;18593;51.426;7.030;2023-02-18T11:13:42;100856.09;;;10.66;80.63
32081;BME280;18593;51.426;7.030;2023-02-18T11:16:10;100857.09;;;10.58;80.61
32081;BME280;18593;51.426;7.030;2023-02-18T11:18:39;100869.00;;;10.62;80.89
32081;BME280;18593;51.426;7.030;2023-02-18T11:21:19;100862.25;;;10.60;81.07
32081;BME280;18593;51.426;7.030;2023-02-18T11:23:49;100860.56;;;10.58;81.51
32081;BME280;18593;51.426;7.030;2023-02-18T11:26:20;100849.72;;;10.67;81.13
32081;BME280;18593;51.426;7.030;2023-02-18T11:28:51;100855.88;;;10.67;81.41
32081;BME280;18593;51.426;7.030;2023-02-18T11:31:23;100848.50;;;10.69;81.50
32081;BME280;18593;51.426;7.030;2023-02-18T11:33:52;100851.78;;;10.71;81.27
32081;BME280;18593;51.426;7.030;2023-02-18T11:36:22;100849.53;;;10.75;81.68
32081;BME280;18593;51.426;7.030;2023-02-18T11:38:52;100849.50;;;10.68;81.71
32081;BME280;18593;51.426;7.030;2023-02-18T11:41:28;100853.63;;;10.71;81.74
32081;BME280;18593;51.426;7.030;2023-02-18T11:43:56;100855.47;;;10.70;81.97
32081;BME280;18593;51.426;7.030;2023-02-18T11:46:24;100839.25;;;10.65;82.00
32081;BME280;18593;51.426;7.030;2023-02-18T11:48:52;100844.78;;;10.57;82.43
32081;BME280;18593;51.426;7.030;2023-02-18T11:51:23;100854.63;;;10.56;82.66
32081;BME280;18593;51.426;7.030;2023-02-18T11:53:59;100845.59;;;10.51;83.32
32081;BME280;18593;51.426;7.030;2023-02-18T11:56:30;100849.50;;;10.55;83.02
32081;BME280;18593;51.426;7.030;2023-02-18T11:58:57;100850.75;;;10.59;82.93
32081;BME280;18593;51.426;7.030;2023-02-18T12:01:35;100856.09;;;10.59;83.01
32081;BME280;18593;51.426;7.030;2023-02-18T12:04:07;100853.22;;;10.61;82.84
32081;BME280;18593;51.426;7.030;2023-02-18T12:06:37;100852.59;;;10.65;82.86
32081;BME280;18593;51.426;7.030;2023-02-18T12:09:08;100853.03;;;10.69;82.71
32081;BME280;18593;51.426;7.030;2023-02-18T12:11:43;100846.25;;;10.73;82.84
32081;BME280;18593;51.426;7.030;2023-02-18T12:14:16;100841.97;;;10.78;82.79
32081;BME280;18593;51.426;7.030;2023-02-18T12:16:48;100843.19;;;10.76;82.65
32081;BME280;18593;51.426;7.030;2023-02-18T12:19:30;100842.16;;;10.70;83.11
32081;BME280;18593;51.426;7.030;2023-02-18T12:22:04;100844.38;;;10.73;82.96
32081;BME280;18593;51.426;7.030;2023-02-18T12:24:46;100840.91;;;10.66;83.35
32081;BME280;18593;51.426;7.030;2023-02-18T12:27:20;100832.28;;;10.71;83.49
32081;BME280;18593;51.426;7.030;2023-02-18T12:30:24;100846.66;;;10.70;83.22
32081;BME280;18593;51.426;7.030;2023-02-18T12:32:58;100832.91;;;10.66;83.15
32081;BME280;18593;51.426;7.030;2023-02-18T12:35:49;100831.06;;;10.73;83.09
32081;BME280;18593;51.426;7.030;2023-02-18T12:38:32;100838.03;;;10.68;83.52
32081;BME280;18593;51.426;7.030;2023-02-18T12:41:13;100849.94;;;10.72;83.74
32081;BME280;18593;51.426;7.030;2023-02-18T12:43:49;100831.25;;;10.65;83.90
32081;BME280;18593;51.426;7.030;2023-02-18T12:46:31;100833.72;;;10.73;84.25
32081;BME280;18593;51.426;7.030;2023-02-18T12:52:09;100836.16;;;10.68;84.06
32081;BME280;18593;51.426;7.030;2023-02-18T12:54:50;100832.09;;;10.72;84.42
32081;BME280;18593;51.426;7.030;2023-02-18T12:57:35;100832.91;;;10.73;84.44
32081;BME280;18593;51.426;7.030;2023-02-18T13:00:28;100832.69;;;10.68;84.61
32081;BME280;18593;51.426;7.030;2023-02-18T13:03:25;100831.47;;;10.70;84.71
32081;BME280;18593;51.426;7.030;2023-02-18T13:05:59;100836.19;;;10.75;84.44
32081;BME280;18593;51.426;7.030;2023-02-18T13:08:35;100832.28;;;10.71;84.95
32081;BME280;18593;51.426;7.030;2023-02-18T13:11:11;100826.34;;;10.75;84.68